Time;durP1;ratioP1;P1;durP2;ratioP2;P2;SDS_P1;SDS_P2;PMS_P1;PMS_P2;Temp;Humidity;BMP_temperature;BMP_pressure;BME280_temperature;BME280_humidity;BME280_pressure;Samples;Min_cycle;Max_cycle;Signal;HPM_P1;HPM_P2
2022/04/30 00:00:29;;;;;;;6.05;4.12;;;;;;;9.61;70.76;99925.37;4289783;33;35025;-72
2022/04/30 00:02:59;;;;;;;6.55;3.80;;;;;;;9.39;66.55;99928.78;4289793;33;34632;-72
2022/04/30 00:05:32;;;;;;;6.03;4.03;;;;;;;10.01;69.34;99919.41;4287909;33;33615;-72
2022/04/30 00:08:05;;;;;;;5.12;3.53;;;;;;;10.07;67.32;99915.03;4289383;33;34642;-72
2022/04/30 00:10:37;;;;;;;8.77;4.15;;;;;;;10.14;69.24;99925.47;4288856;33;34923;-72
2022/04/30 00:13:07;;;;;;;6.80;3.97;;;;;;;10.42;67.59;99923.75;4289430;33;35297;-72
2022/04/30 00:15:36;;;;;;;8.05;4.43;;;;;;;9.82;67.86;99927.16;4289931;33;33928;-72
2022/04/30 00:18:04;;;;;;;6.35;3.55;;;;;;;9.97;66.99;99915.94;4265582;33;34020;-72
2022/04/30 00:20:33;;;;;;;7.20;3.40;;;;;;;10.22;66.72;99921.12;4276244;33;34436;-72
2022/04/30 00:23:00;;;;;;;5.40;3.75;;;;;;;10.69;65.33;99920.25;4290368;33;34554;-72
2022/04/30 00:25:28;;;;;;;5.75;3.58;;;;;;;9.68;66.84;99927.13;4289470;33;34502;-72
2022/04/30 00:27:56;;;;;;;7.62;3.80;;;;;;;10.31;66.07;99926.38;4290658;33;34640;-72
2022/04/30 00:30:24;;;;;;;5.80;3.58;;;;;;;9.40;67.01;99926.19;4276662;33;35164;-72
2022/04/30 00:32:53;;;;;;;6.07;3.65;;;;;;;9.70;68.44;99919.34;4289529;33;35364;-72
2022/04/30 00:35:22;;;;;;;7.28;3.78;;;;;;;10.34;66.21;99920.28;4288790;33;33596;-72
2022/04/30 00:37:50;;;;;;;5.62;3.42;;;;;;;10.47;64.32;99923.78;4290234;33;33816;-72
2022/04/30 00:40:17;;;;;;;8.73;5.07;;;;;;;10.34;65.24;99918.56;4289391;33;35055;-72
2022/04/30 00:42:45;;;;;;;5.95;3.83;;;;;;;9.91;65.64;99912.44;4277364;33;33824;-72
2022/04/30 00:45:14;;;;;;;6.05;3.83;;;;;;;9.98;65.22;99915.03;4289712;33;34452;-71
2022/04/30 00:47:42;;;;;;;6.95;3.83;;;;;;;9.72;66.43;99921.94;4277014;33;33510;-72
2022/04/30 00:50:15;;;;;;;6.10;4.15;;;;;;;9.96;65.53;99921.12;4288829;33;35121;-72
2022/04/30 00:52:46;;;;;;;5.30;3.72;;;;;;;9.74;66.10;99925.41;4279596;33;35138;-72
2022/04/30 00:55:22;;;;;;;6.10;4.15;;;;;;;9.33;67.32;99928.75;4289358;33;33688;-72
2022/04/30 00:57:54;;;;;;;6.12;3.72;;;;;;;8.96;67.56;99923.41;4262723;33;32343;-72
2022/04/30 01:00:22;;;;;;;6.57;4.30;;;;;;;9.43;66.50;99938.34;4275030;33;34926;-72
2022/04/30 01:02:51;;;;;;;6.40;3.35;;;;;;;9.48;66.24;99928.81;4290314;33;35293;-72
2022/04/30 01:05:21;;;;;;;6.40;4.05;;;;;;;8.87;68.58;99935.47;4289429;33;33744;-72
2022/04/30 01:07:49;;;;;;;6.47;3.65;;;;;;;8.76;67.93;99929.34;4276195;33;33449;-72
2022/04/30 01:10:17;;;;;;;6.03;3.47;;;;;;;9.24;66.59;99929.59;4289537;33;34998;-72
2022/04/30 01:12:46;;;;;;;5.22;3.85;;;;;;;9.49;65.97;99926.22;4289219;33;34866;-72
2022/04/30 01:15:14;;;;;;;7.65;4.30;;;;;;;8.63;66.54;99924.94;4276982;33;33107;-72
2022/04/30 01:17:43;;;;;;;8.65;3.60;;;;;;;9.09;66.51;99927.81;4276798;33;33149;-72
2022/04/30 01:20:11;;;;;;;7.12;4.15;;;;;;;8.90;67.67;99921.66;4277053;33;34852;-72
2022/04/30 01:22:49;;;;;;;5.57;3.50;;;;;;;8.37;68.72;99917.81;4287897;33;34600;-72
2022/04/30 01:25:17;;;;;;;6.03;3.80;;;;;;;8.71;67.91;99920.66;4277372;33;33777;-72
2022/04/30 01:27:45;;;;;;;4.87;3.60;;;;;;;8.49;68.50;99917.06;4277034;33;33324;-72
2022/04/30 01:30:13;;;;;;;5.15;3.70;;;;;;;9.07;66.71;99917.41;4289562;33;35064;-72
2022/04/30 01:38:15;;;;;;;6.93;4.30;;;;;;;8.41;68.34;99923.88;4288064;33;34656;-72
2022/04/30 01:40:43;;;;;;;5.40;3.83;;;;;;;8.24;68.90;99922.03;4287167;33;34971;-72
2022/04/30 01:43:11;;;;;;;7.50;4.22;;;;;;;8.33;69.24;99916.06;4289710;33;34489;-72
2022/04/30 01:45:39;;;;;;;7.15;4.70;;;;;;;8.67;68.12;99916.31;4288065;33;34385;-72
2022/04/30 01:48:12;;;;;;;6.87;4.65;;;;;;;8.30;68.94;99910.84;4289925;33;34580;-72
2022/04/30 01:50:41;;;;;;;8.07;5.00;;;;;;;8.42;68.76;99905.78;4288731;33;35181;-72
2022/04/30 01:53:12;;;;;;;11.05;5.20;;;;;;;8.44;67.18;99898.88;4288488;33;35225;-72
2022/04/30 01:55:40;;;;;;;10.30;5.95;;;;;;;8.43;66.43;99902.31;4286806;33;34592;-73
2022/04/30 01:58:08;;;;;;;7.47;4.95;;;;;;;8.49;67.16;99899.75;4288587;33;34703;-72
2022/04/30 02:00:36;;;;;;;8.82;5.07;;;;;;;8.84;67.07;99899.12;4288638;33;35074;-73
2022/04/30 02:03:07;;;;;;;10.75;5.70;;;;;;;8.66;68.28;99899.84;4289458;33;34377;-71
2022/04/30 02:05:37;;;;;;;8.18;4.87;;;;;;;8.63;68.49;99896.38;4264456;33;33684;-77
2022/04/30 02:08:11;;;;;;;10.68;6.82;;;;;;;8.64;69.21;99898.12;4289367;33;34515;-72
2022/04/30 02:10:41;;;;;;;7.45;5.28;;;;;;;8.46;69.21;99891.94;4274877;33;34935;-72
2022/04/30 02:13:10;;;;;;;11.48;6.45;;;;;;;8.86;67.74;99889.59;4276281;33;35292;-72
2022/04/30 02:15:40;;;;;;;11.05;6.53;;;;;;;8.57;69.17;99884.22;4274865;33;34706;-73
2022/04/30 02:18:13;;;;;;;8.75;5.78;;;;;;;8.79;69.25;99894.72;4288009;33;34008;-72
2022/04/30 02:20:44;;;;;;;9.02;6.10;;;;;;;9.32;67.23;99883.72;4275768;33;35930;-72
2022/04/30 02:23:14;;;;;;;8.27;5.62;;;;;;;8.42;68.73;99892.81;4289184;33;33982;-72
2022/04/30 02:25:42;;;;;;;8.50;5.55;;;;;;;8.53;68.64;99888.53;4287291;33;34570;-72
2022/04/30 02:28:10;;;;;;;11.50;5.85;;;;;;;8.66;68.45;99888.59;4287970;33;34016;-72
2022/04/30 02:30:38;;;;;;;12.30;6.60;;;;;;;8.76;67.71;99893.00;4287590;33;35118;-72
2022/04/30 02:33:08;;;;;;;8.50;5.37;;;;;;;8.76;68.03;99887.81;4288833;33;33923;-72
2022/04/30 02:35:43;;;;;;;9.55;5.75;;;;;;;8.85;68.30;99887.00;4290412;33;35855;-72
2022/04/30 02:38:12;;;;;;;11.12;7.05;;;;;;;8.99;68.14;99893.13;4264063;33;33899;-72
2022/04/30 02:40:40;;;;;;;9.32;5.68;;;;;;;9.10;66.74;99885.38;4276568;33;35031;-73
2022/04/30 02:43:10;;;;;;;9.75;6.12;;;;;;;8.56;68.60;99882.50;4290823;33;33757;-72
2022/04/30 02:45:41;;;;;;;14.15;6.55;;;;;;;8.61;69.38;99879.91;4274963;33;33000;-78
2022/04/30 02:48:09;;;;;;;8.85;6.20;;;;;;;8.36;70.51;99877.13;4277957;33;32907;-78
2022/04/30 02:50:37;;;;;;;8.15;5.20;;;;;;;8.91;68.70;99876.63;4290595;33;35072;-73
2022/04/30 02:53:06;;;;;;;9.97;6.33;;;;;;;8.72;69.60;99875.69;4282164;33;218553;-76
2022/04/30 02:55:35;;;;;;;9.98;5.97;;;;;;;8.69;69.52;99863.53;4277036;33;34629;-73
2022/04/30 03:00:51;;;;;;;11.23;6.50;;;;;;;9.01;68.59;99872.34;4289265;33;34672;-73
2022/04/30 03:03:20;;;;;;;10.23;7.07;;;;;;;8.12;71.13;99864.87;4276345;33;35348;-77
2022/04/30 03:05:53;;;;;;;10.38;6.75;;;;;;;8.61;69.70;99861.75;4287211;33;33818;-73
2022/04/30 03:08:23;;;;;;;12.07;6.20;;;;;;;8.77;68.37;99860.09;4278285;33;33877;-73
2022/04/30 03:10:56;;;;;;;11.23;7.00;;;;;;;8.57;69.42;99863.47;4288755;33;36030;-71
2022/04/30 03:13:25;;;;;;;11.65;6.60;;;;;;;8.69;69.41;99867.88;4263928;33;34470;-77
2022/04/30 03:15:56;;;;;;;9.85;6.43;;;;;;;8.67;68.57;99869.59;4288523;33;33787;-73
2022/04/30 03:21:42;;;;;;;9.57;6.45;;;;;;;8.61;69.36;99873.03;4258952;33;34985;-78
2022/04/30 03:24:11;;;;;;;12.15;6.53;;;;;;;8.56;69.81;99866.03;4249192;33;34137;-78
2022/04/30 03:26:39;;;;;;;12.43;7.45;;;;;;;8.70;69.58;99875.66;4273636;33;33635;-79
2022/04/30 03:29:07;;;;;;;9.57;6.70;;;;;;;8.32;70.82;99870.19;4290452;33;34706;-78
2022/04/30 03:31:35;;;;;;;10.43;7.45;;;;;;;8.69;69.88;99873.06;4288863;33;35036;-74
2022/04/30 03:34:03;;;;;;;11.23;7.15;;;;;;;8.20;71.94;99870.09;4289602;33;34217;-73
2022/04/30 03:36:31;;;;;;;9.85;7.20;;;;;;;8.17;71.94;99873.56;4276729;33;34479;-78
2022/04/30 03:38:59;;;;;;;13.15;7.00;;;;;;;8.61;70.21;99869.53;4290414;33;33889;-76
2022/04/30 03:41:27;;;;;;;10.75;7.00;;;;;;;8.88;69.21;99874.88;4276617;33;35911;-78
2022/04/30 03:43:54;;;;;;;9.27;6.70;;;;;;;8.53;70.38;99872.97;4290335;33;35338;-75
2022/04/30 03:46:22;;;;;;;13.62;8.30;;;;;;;8.08;72.77;99882.16;4276392;33;33622;-79
2022/04/30 03:48:53;;;;;;;14.07;7.85;;;;;;;8.16;71.98;99872.69;4290606;33;34766;-73
2022/04/30 03:51:24;;;;;;;9.70;6.53;;;;;;;8.72;67.83;99873.94;4289476;33;34896;-78
2022/04/30 03:53:55;;;;;;;12.55;7.60;;;;;;;8.54;70.27;99874.72;4276595;33;34490;-77
2022/04/30 03:56:24;;;;;;;12.13;6.30;;;;;;;9.31;67.45;99866.38;4289609;33;33848;-78
2022/04/30 03:58:52;;;;;;;11.12;6.90;;;;;;;9.07;69.10;99880.16;4289001;33;33916;-76
2022/04/30 04:01:21;;;;;;;9.82;6.65;;;;;;;8.88;69.77;99869.69;4276714;33;34751;-77
2022/04/30 04:03:50;;;;;;;13.98;7.43;;;;;;;9.00;70.79;99873.19;4289459;33;35402;-73
2022/04/30 04:06:18;;;;;;;14.05;8.13;;;;;;;8.99;70.99;99876.66;4289660;33;34639;-78
2022/04/30 04:08:52;;;;;;;11.80;7.47;;;;;;;9.15;69.55;99872.41;4290284;33;34749;-77
2022/04/30 04:11:22;;;;;;;10.32;6.87;;;;;;;9.57;67.51;99863.00;4287590;33;34831;-78
2022/04/30 04:19:26;;;;;;;14.65;8.90;;;;;;;10.17;67.98;99881.22;4278382;33;34740;-74
2022/04/30 04:21:54;;;;;;;17.45;8.05;;;;;;;10.76;66.75;99879.41;4289389;33;35268;-75
2022/04/30 04:27:09;;;;;;;;;;;;;;;11.09;64.68;99886.25;4290377;33;34522;-76
2022/04/30 04:29:36;;;;;;;10.35;6.20;;;;;;;11.44;61.80;99885.22;4289478;33;34841;-79
2022/04/30 04:32:04;;;;;;;11.38;6.55;;;;;;;11.85;57.57;99878.87;4288288;33;35055;-72
2022/04/30 04:34:32;;;;;;;9.10;6.45;;;;;;;12.12;60.63;99884.78;4276344;33;33652;-74
2022/04/30 04:37:00;;;;;;;10.55;6.85;;;;;;;12.53;61.16;99886.19;4289448;33;33655;-73
2022/04/30 04:39:28;;;;;;;8.27;5.87;;;;;;;12.71;57.81;99885.97;4289961;33;34054;-73
2022/04/30 04:41:56;;;;;;;11.63;6.68;;;;;;;13.02;57.12;99884.75;4289244;33;35152;-73
2022/04/30 04:44:23;;;;;;;12.07;5.75;;;;;;;12.98;61.50;99883.91;4277158;33;34516;-79
2022/04/30 04:46:51;;;;;;;8.63;5.72;;;;;;;13.52;55.46;99890.25;4289351;33;34418;-74
2022/04/30 04:49:19;;;;;;;11.00;6.78;;;;;;;13.83;56.40;99880.19;4277479;33;33916;-73
2022/04/30 04:51:47;;;;;;;9.90;6.60;;;;;;;14.02;52.80;99886.00;4288923;33;35964;-73
2022/04/30 04:54:14;;;;;;;10.55;6.28;;;;;;;14.39;55.10;99886.25;4289563;33;35214;-74
2022/04/30 04:56:44;;;;;;;10.25;6.10;;;;;;;14.84;53.16;99885.47;4277074;33;33606;-74
2022/04/30 04:59:13;;;;;;;13.80;6.37;;;;;;;14.71;55.16;99887.44;4275603;33;33278;-73
2022/04/30 05:01:41;;;;;;;11.40;6.28;;;;;;;15.06;48.04;99885.03;4290126;33;34958;-73
2022/04/30 05:04:09;;;;;;;9.13;6.00;;;;;;;15.29;52.62;99882.78;4290108;33;34522;-74
2022/04/30 05:06:37;;;;;;;9.40;5.32;;;;;;;15.14;53.12;99885.72;4276217;33;33579;-74
2022/04/30 05:09:04;;;;;;;7.68;5.37;;;;;;;15.51;47.58;99890.19;4290108;33;33573;-73
2022/04/30 05:11:33;;;;;;;8.93;5.53;;;;;;;15.60;46.81;99887.37;4275458;33;35983;-73
2022/04/30 05:14:00;;;;;;;8.02;4.97;;;;;;;15.73;46.54;99885.34;4288713;33;34783;-73
2022/04/30 05:16:28;;;;;;;8.10;5.53;;;;;;;16.04;45.99;99889.88;4289334;33;33599;-73
2022/04/30 05:18:56;;;;;;;9.48;4.90;;;;;;;15.89;45.15;99891.97;4289925;33;33946;-72
2022/04/30 05:21:25;;;;;;;9.88;6.05;;;;;;;16.59;43.91;99887.59;4264888;33;34272;-73
2022/04/30 05:23:53;;;;;;;11.23;5.12;;;;;;;16.39;46.55;99891.63;4276616;33;35347;-72
2022/04/30 05:26:21;;;;;;;8.23;5.22;;;;;;;16.72;45.41;99891.66;4276032;33;34493;-73
2022/04/30 05:28:48;;;;;;;10.18;5.05;;;;;;;17.11;42.65;99882.72;4289242;33;34464;-73
2022/04/30 05:31:16;;;;;;;11.70;5.40;;;;;;;16.40;45.05;99887.25;4289807;33;35982;-72
2022/04/30 05:33:44;;;;;;;8.30;5.87;;;;;;;17.06;44.92;99890.72;4288993;33;34373;-73
2022/04/30 05:36:12;;;;;;;7.72;5.57;;;;;;;17.60;40.27;99895.28;4289715;33;33817;-73
2022/04/30 05:38:40;;;;;;;8.77;5.25;;;;;;;17.62;40.08;99897.88;4286214;33;33912;-73
2022/04/30 05:41:08;;;;;;;8.23;4.95;;;;;;;17.65;41.69;99891.63;4289860;33;35902;-73
2022/04/30 05:43:36;;;;;;;10.10;5.35;;;;;;;18.19;39.83;99890.81;4288884;33;35179;-74
2022/04/30 05:46:04;;;;;;;8.20;5.25;;;;;;;18.81;38.79;99893.97;4288967;33;33665;-75
2022/04/30 05:48:32;;;;;;;8.40;5.85;;;;;;;17.96;39.77;99886.28;4288724;33;33865;-74
2022/04/30 05:51:01;;;;;;;9.68;4.78;;;;;;;18.21;41.13;99891.59;4276563;33;35169;-74
2022/04/30 05:53:29;;;;;;;8.82;5.43;;;;;;;18.61;39.46;99898.16;4287960;33;34515;-74
2022/04/30 05:55:57;;;;;;;8.70;5.32;;;;;;;18.73;40.50;99889.81;4288514;33;34493;-74
2022/04/30 05:58:25;;;;;;;8.00;4.82;;;;;;;18.68;40.55;99894.41;4288493;33;34811;-78
2022/04/30 06:00:53;;;;;;;8.82;5.22;;;;;;;18.71;39.17;99891.66;4289410;33;35064;-73
2022/04/30 06:03:21;;;;;;;9.55;5.07;;;;;;;18.84;37.61;99900.03;4288544;33;34474;-74
2022/04/30 06:05:49;;;;;;;8.55;5.07;;;;;;;19.20;36.74;99896.97;4288469;33;33758;-73
2022/04/30 06:08:16;;;;;;;6.97;4.30;;;;;;;19.11;38.59;99902.56;4288501;33;34866;-73
2022/04/30 06:10:44;;;;;;;8.18;4.80;;;;;;;19.69;38.17;99895.09;4290059;33;36073;-71
2022/04/30 06:13:12;;;;;;;7.47;4.97;;;;;;;20.05;37.21;99893.69;4290275;33;34371;-73
2022/04/30 06:15:40;;;;;;;8.63;4.82;;;;;;;19.52;36.84;99887.81;4291084;33;33688;-79
2022/04/30 06:18:08;;;;;;;6.80;4.50;;;;;;;19.69;35.11;99896.84;4277124;33;34119;-78
2022/04/30 06:20:36;;;;;;;8.63;4.57;;;;;;;20.26;36.70;99895.44;4290969;33;35068;-83
2022/04/30 06:23:04;;;;;;;8.02;4.55;;;;;;;19.77;40.44;99904.53;4289772;33;34510;-81
2022/04/30 06:25:34;;;;;;;7.15;4.18;;;;;;;20.57;33.14;99896.78;4291137;33;34518;-72
2022/04/30 06:28:03;;;;;;;8.75;4.57;;;;;;;20.34;33.23;99899.56;4289643;33;33913;-72
2022/04/30 06:30:31;;;;;;;6.65;4.25;;;;;;;19.91;34.67;99890.72;4290966;33;35982;-73
2022/04/30 06:32:59;;;;;;;8.95;4.65;;;;;;;19.83;33.19;99899.84;4289037;33;35268;-72
2022/04/30 06:35:27;;;;;;;9.27;4.90;;;;;;;20.25;34.05;99896.34;4291021;33;33750;-73
2022/04/30 06:38:00;;;;;;;6.50;4.47;;;;;;;20.50;32.30;99902.41;4290276;33;33816;-72
2022/04/30 06:40:28;;;;;;;7.78;5.37;;;;;;;20.53;31.89;99900.50;4289966;33;35137;-75
2022/04/30 06:42:56;;;;;;;6.32;4.40;;;;;;;20.73;33.88;99898.81;4290078;33;35349;-72
2022/04/30 06:45:24;;;;;;;9.88;4.75;;;;;;;20.94;31.90;99897.84;4291041;33;33631;-72
2022/04/30 06:47:51;;;;;;;7.95;4.65;;;;;;;21.47;31.00;99892.84;4288974;33;34015;-73
2022/04/30 06:50:19;;;;;;;6.40;4.15;;;;;;;20.26;33.65;99898.09;4289707;33;35077;-72
2022/04/30 06:58:20;;;;;;;8.63;4.68;;;;;;;20.69;33.96;99892.78;4289950;33;33906;-73
2022/04/30 07:03:29;;;;;;;8.93;4.30;;;;;;;21.13;32.00;99897.03;4277048;33;34522;-73
2022/04/30 07:06:04;;;;;;;8.35;5.30;;;;;;;21.09;32.51;99898.06;4290850;33;33740;-73
2022/04/30 07:08:33;;;;;;;10.52;4.93;;;;;;;20.92;34.37;99899.72;4288898;33;34707;-72
2022/04/30 07:11:02;;;;;;;7.62;4.60;;;;;;;20.62;34.12;99889.53;4290618;33;35910;-72
2022/04/30 07:13:30;;;;;;;13.30;5.45;;;;;;;21.20;32.57;99890.53;4289704;33;34483;-74
2022/04/30 07:15:59;;;;;;;11.23;5.68;;;;;;;21.40;31.71;99893.09;4266105;33;34276;-73
2022/04/30 07:18:26;;;;;;;10.88;5.72;;;;;;;21.19;34.83;99883.50;4284103;33;34766;-71
2022/04/30 07:20:55;;;;;;;9.75;5.25;;;;;;;21.44;32.72;99887.66;4288597;33;35099;-72
2022/04/30 07:23:23;;;;;;;8.00;4.87;;;;;;;20.90;35.07;99888.31;4289706;33;35218;-73
2022/04/30 07:25:51;;;;;;;8.75;5.07;;;;;;;21.54;34.71;99883.69;4290692;33;34476;-72
2022/04/30 07:28:19;;;;;;;7.93;5.07;;;;;;;21.20;34.33;99885.22;4289842;33;34118;-72
2022/04/30 07:30:47;;;;;;;7.40;5.25;;;;;;;21.80;33.62;99878.94;4289846;33;35129;-72
2022/04/30 07:33:14;;;;;;;8.20;4.82;;;;;;;22.09;33.44;99880.97;4289922;33;34626;-72
2022/04/30 07:35:42;;;;;;;11.25;4.87;;;;;;;21.78;32.61;99877.19;4290722;33;34359;-72
2022/04/30 07:38:10;;;;;;;7.70;5.20;;;;;;;22.16;32.64;99884.19;4288719;33;33916;-73
2022/04/30 07:40:38;;;;;;;8.25;5.18;;;;;;;22.10;32.77;99877.41;4290475;33;34996;-73
2022/04/30 07:43:06;;;;;;;9.80;5.85;;;;;;;22.36;31.25;99877.94;4289858;33;34457;-72
2022/04/30 07:45:36;;;;;;;8.63;5.00;;;;;;;22.64;31.12;99881.81;4277556;33;33687;-74
2022/04/30 07:48:04;;;;;;;8.60;5.25;;;;;;;22.90;30.83;99883.09;4276039;33;32888;-73
2022/04/30 07:50:35;;;;;;;9.18;5.78;;;;;;;22.65;30.49;99873.75;4277495;33;34974;-72
2022/04/30 07:53:04;;;;;;;7.95;5.32;;;;;;;22.85;30.87;99880.69;4276348;33;34591;-81
2022/04/30 07:55:32;;;;;;;7.68;5.50;;;;;;;23.26;30.21;99874.97;4289339;33;33772;-83
2022/04/30 07:58:02;;;;;;;8.73;5.45;;;;;;;23.48;32.79;99879.09;4277260;33;33867;-83
2022/04/30 08:00:30;;;;;;;9.50;5.32;;;;;;;23.49;32.07;99875.50;4277033;33;34792;-82
2022/04/30 08:02:59;;;;;;;10.25;5.43;;;;;;;23.59;33.71;99870.53;4290088;33;35278;-84
2022/04/30 08:05:28;;;;;;;8.80;5.32;;;;;;;23.50;32.34;99871.03;4277618;33;33824;-82
2022/04/30 08:07:56;;;;;;;8.10;5.05;;;;;;;23.90;30.99;99866.16;4290303;33;33921;-82
2022/04/30 08:10:24;;;;;;;9.43;5.28;;;;;;;23.76;29.35;99857.13;4277537;33;35074;-73
2022/04/30 08:12:55;;;;;;;7.28;4.95;;;;;;;23.28;31.92;99867.78;4289086;33;35514;-80
2022/04/30 08:15:24;;;;;;;10.70;5.53;;;;;;;23.62;33.34;99876.53;4289259;33;33661;-81
2022/04/30 08:17:53;;;;;;;9.13;5.50;;;;;;;24.06;29.13;99877.63;4276251;33;33922;-82
2022/04/30 08:20:21;;;;;;;9.40;4.95;;;;;;;23.60;32.79;99889.03;4287838;33;34898;-73
2022/04/30 08:22:50;;;;;;;6.78;5.30;;;;;;;23.67;31.05;99877.13;4289552;33;35160;-73
2022/04/30 08:25:18;;;;;;;7.53;4.95;;;;;;;23.50;32.75;99877.22;4290414;33;33293;-72
2022/04/30 08:27:45;;;;;;;6.68;4.90;;;;;;;23.65;29.15;99873.69;4288297;33;35122;-72
2022/04/30 08:30:13;;;;;;;7.90;4.80;;;;;;;24.03;28.51;99878.63;4289480;33;34772;-82
2022/04/30 08:32:41;;;;;;;7.57;4.97;;;;;;;23.51;28.43;99876.28;4289315;33;34482;-72
2022/04/30 08:35:09;;;;;;;7.05;4.62;;;;;;;23.93;32.95;99863.31;4289318;33;33761;-73
2022/04/30 08:37:57;;;;;;;5.45;4.12;;;;;;;23.79;30.91;99864.94;4288516;33;34742;-73
2022/04/30 08:40:25;;;;;;;6.80;4.53;;;;;;;24.30;28.58;99872.69;4290088;33;35208;-72
2022/04/30 08:42:54;;;;;;;9.68;4.40;;;;;;;24.26;29.33;99871.13;4289421;33;35246;-73
2022/04/30 08:45:23;;;;;;;7.80;5.47;;;;;;;24.16;27.78;99872.59;4290194;33;33626;-73
2022/04/30 08:47:51;;;;;;;7.20;3.87;;;;;;;24.03;28.86;99870.66;4289370;33;33965;-73
2022/04/30 08:50:18;;;;;;;7.40;4.22;;;;;;;23.94;28.09;99873.84;4276670;33;35929;-72
2022/04/30 08:52:47;;;;;;;5.57;3.33;;;;;;;24.30;28.55;99867.34;4289362;33;34531;-73
2022/04/30 08:55:14;;;;;;;6.00;4.20;;;;;;;24.01;26.45;99864.56;4290266;33;33764;-72
2022/04/30 08:57:42;;;;;;;7.32;4.70;;;;;;;23.94;30.17;99859.72;4289270;33;34674;-73
2022/04/30 09:00:11;;;;;;;6.55;3.60;;;;;;;24.69;25.77;99852.62;4290005;33;36252;-73
2022/04/30 09:02:52;;;;;;;8.35;3.90;;;;;;;24.66;28.97;99857.28;4289232;33;34374;-73
2022/04/30 09:05:21;;;;;;;6.05;3.90;;;;;;;25.00;25.12;99852.53;4289350;33;34194;-72
2022/04/30 09:07:53;;;;;;;7.22;4.47;;;;;;;25.57;25.46;99847.09;4289196;33;34890;-73
2022/04/30 09:10:23;;;;;;;7.85;4.10;;;;;;;25.62;26.67;99838.81;4277180;33;35875;-72
2022/04/30 09:12:54;;;;;;;5.60;3.70;;;;;;;25.71;25.43;99841.75;4289092;33;34484;-73
2022/04/30 09:15:24;;;;;;;6.25;3.92;;;;;;;24.63;26.28;99842.31;4290066;33;33748;-73
2022/04/30 09:17:57;;;;;;;6.85;4.22;;;;;;;25.01;27.26;99835.56;4276013;33;33126;-72
2022/04/30 09:20:25;;;;;;;6.80;4.00;;;;;;;24.76;26.67;99837.09;4290018;33;35946;-73
2022/04/30 09:22:53;;;;;;;5.57;3.58;;;;;;;24.35;25.77;99835.97;4287918;33;35249;-72
2022/04/30 09:25:20;;;;;;;6.10;3.33;;;;;;;24.95;26.52;99840.34;4289100;33;34501;-72
2022/04/30 09:28:05;;;;;;;5.20;3.83;;;;;;;24.42;28.14;99828.47;4289124;33;34147;-74
2022/04/30 09:30:33;;;;;;;5.90;3.80;;;;;;;24.43;27.16;99830.19;4289799;33;35055;-73
2022/04/30 09:33:06;;;;;;;5.40;3.45;;;;;;;24.32;27.02;99825.53;4289015;33;34360;-74
2022/04/30 09:38:25;;;;;;;10.10;3.80;;;;;;;25.28;24.34;99823.19;4288896;33;33745;-73
2022/04/30 09:40:57;;;;;;;6.05;4.05;;;;;;;24.89;26.71;99818.56;4276023;33;34951;-72
2022/04/30 09:43:29;;;;;;;5.37;3.30;;;;;;;24.57;24.27;99818.75;4288001;33;34458;-73
2022/04/30 09:46:08;;;;;;;9.70;3.85;;;;;;;25.06;24.28;99813.03;4289291;33;33559;-74
2022/04/30 09:54:10;;;;;;;8.27;3.85;;;;;;;24.97;23.93;99808.25;4288694;33;34671;-73
2022/04/30 09:56:40;;;;;;;6.43;3.92;;;;;;;24.98;26.72;99804.66;4288481;33;33751;-72
2022/04/30 09:59:10;;;;;;;5.68;4.20;;;;;;;25.23;22.33;99808.44;4288594;33;34804;-73
2022/04/30 10:01:41;;;;;;;7.15;4.28;;;;;;;24.23;26.37;99807.47;4288527;33;34949;-86
2022/04/30 10:04:11;;;;;;;6.03;3.53;;;;;;;24.85;25.55;99795.72;4275752;33;33729;-73
2022/04/30 10:06:44;;;;;;;5.20;3.75;;;;;;;25.02;25.48;99792.84;4275983;33;33910;-76
2022/04/30 10:09:23;;;;;;;5.60;3.72;;;;;;;25.15;27.11;99791.12;4288526;33;34680;-73
2022/04/30 10:11:56;;;;;;;5.72;3.55;;;;;;;23.66;28.95;99793.00;4275518;33;35190;-72
2022/04/30 10:14:43;;;;;;;7.87;4.40;;;;;;;24.68;25.10;99783.47;4288456;33;35258;-73
2022/04/30 10:17:20;;;;;;;5.78;3.70;;;;;;;24.38;26.63;99784.38;4288148;33;34609;-77
2022/04/30 10:20:12;;;;;;;5.00;3.42;;;;;;;24.80;25.04;99780.03;4275694;33;34654;-73
2022/04/30 10:23:10;;;;;;;7.80;3.78;;;;;;;24.22;22.62;99784.44;4289126;33;35920;-73
2022/04/30 10:25:43;;;;;;;8.40;3.90;;;;;;;24.35;22.98;99780.06;4261487;33;34808;-82
2022/04/30 10:28:17;;;;;;;5.72;3.67;;;;;;;24.36;24.45;99786.28;4286617;33;34513;-73
2022/04/30 10:30:57;;;;;;;7.45;4.12;;;;;;;24.53;24.06;99782.56;4289104;33;33927;-83
2022/04/30 10:33:25;;;;;;;5.28;3.67;;;;;;;24.53;25.94;99782.56;4275204;33;36191;-73
2022/04/30 10:36:06;;;;;;;6.68;4.12;;;;;;;24.58;24.20;99772.50;4276104;33;34389;-73
2022/04/30 10:38:34;;;;;;;5.60;3.47;;;;;;;24.91;23.71;99771.38;4274263;33;33745;-80
2022/04/30 10:41:04;;;;;;;6.15;3.90;;;;;;;25.03;24.57;99775.91;4287550;33;34825;-82
2022/04/30 10:43:40;;;;;;;6.40;3.60;;;;;;;25.44;22.42;99769.72;4275032;33;34988;-72
2022/04/30 10:46:18;;;;;;;5.55;3.30;;;;;;;26.24;21.32;99769.75;4288823;33;34398;-73
2022/04/30 10:48:46;;;;;;;6.43;3.67;;;;;;;25.17;21.89;99754.56;4287973;33;34521;-72
2022/04/30 10:51:16;;;;;;;6.18;2.78;;;;;;;25.16;21.33;99755.50;4288839;33;33967;-73
2022/04/30 10:53:45;;;;;;;7.00;3.70;;;;;;;26.12;19.71;99762.59;4286726;33;35550;-73
2022/04/30 10:56:15;;;;;;;6.25;3.20;;;;;;;26.15;19.71;99759.69;4288843;33;34467;-74
2022/04/30 10:58:43;;;;;;;4.68;3.17;;;;;;;25.02;22.76;99752.03;4290022;33;33701;-73
2022/04/30 11:01:15;;;;;;;5.50;3.20;;;;;;;25.64;20.21;99748.87;4289943;33;33920;-73
2022/04/30 11:03:45;;;;;;;4.93;3.30;;;;;;;26.00;20.32;99750.06;4276845;33;33900;-73
2022/04/30 11:06:22;;;;;;;4.95;3.92;;;;;;;25.99;20.72;99743.03;4289761;33;34670;-72
2022/04/30 11:09:01;;;;;;;5.75;3.62;;;;;;;27.04;20.00;99748.06;4288716;33;34424;-73
2022/04/30 11:11:29;;;;;;;6.15;3.70;;;;;;;25.77;19.65;99736.44;4277907;33;33929;-75
2022/04/30 11:14:02;;;;;;;5.35;3.83;;;;;;;26.41;19.49;99744.53;4289993;33;35840;-73
2022/04/30 11:16:42;;;;;;;5.57;3.10;;;;;;;26.56;20.27;99747.94;4289633;33;32829;-72
2022/04/30 11:19:18;;;;;;;4.35;3.20;;;;;;;26.92;18.30;99738.28;4283956;33;33798;-72
2022/04/30 11:21:51;;;;;;;4.75;3.12;;;;;;;26.91;18.19;99741.91;4290498;33;33918;-72
2022/04/30 11:24:26;;;;;;;5.68;3.70;;;;;;;27.20;17.16;99733.59;4290535;33;35079;-72
2022/04/30 11:27:05;;;;;;;6.35;3.67;;;;;;;26.75;18.46;99738.62;4289179;33;35258;-77
2022/04/30 11:29:46;;;;;;;5.87;3.00;;;;;;;25.97;21.67;99734.28;4291100;33;33542;-76
2022/04/30 11:32:23;;;;;;;5.95;3.80;;;;;;;26.01;22.20;99727.75;4290394;33;33873;-75
2022/04/30 11:34:53;;;;;;;4.90;3.50;;;;;;;26.39;22.16;99724.25;4290604;33;35068;-76
2022/04/30 11:37:21;;;;;;;4.45;3.28;;;;;;;24.99;21.20;99715.78;4277591;33;33559;-77
2022/04/30 11:39:49;;;;;;;6.25;4.12;;;;;;;24.82;22.33;99713.34;4290733;33;33704;-76
2022/04/30 11:42:23;;;;;;;5.03;3.25;;;;;;;25.53;21.42;99720.28;4290396;33;34884;-77
2022/04/30 11:44:54;;;;;;;9.13;3.40;;;;;;;25.34;21.48;99715.31;4290306;33;34988;-75
2022/04/30 11:47:23;;;;;;;6.50;3.10;;;;;;;24.53;21.71;99716.00;4290521;33;34420;-74
2022/04/30 11:50:04;;;;;;;6.35;3.22;;;;;;;23.44;23.05;99713.63;4277923;33;33563;-77
2022/04/30 11:52:34;;;;;;;6.10;3.20;;;;;;;24.03;22.16;99712.84;4277970;33;34239;-77
2022/04/30 11:55:07;;;;;;;9.02;4.72;;;;;;;23.78;22.77;99701.00;4290236;33;36019;-75
2022/04/30 11:57:41;;;;;;;5.70;3.67;;;;;;;23.20;23.87;99699.94;4290358;33;34521;-75
2022/04/30 12:00:11;;;;;;;6.07;3.05;;;;;;;24.06;23.27;99698.53;4277384;33;33820;-75
2022/04/30 12:02:49;;;;;;;5.57;3.40;;;;;;;23.14;25.67;99688.84;4290290;33;34670;-76
2022/04/30 12:05:19;;;;;;;6.85;3.58;;;;;;;23.04;23.46;99693.78;4290750;33;34858;-75
2022/04/30 12:07:47;;;;;;;6.05;3.47;;;;;;;23.71;22.53;99689.00;4289797;33;34678;-76
2022/04/30 12:10:23;;;;;;;6.53;3.58;;;;;;;24.07;24.41;99678.94;4290447;33;33728;-79
2022/04/30 12:12:54;;;;;;;5.15;3.15;;;;;;;24.16;23.52;99675.69;4277788;33;34318;-76
2022/04/30 12:15:27;;;;;;;5.07;3.05;;;;;;;24.70;21.57;99667.88;4290508;33;35834;-78
2022/04/30 12:27:09;;;;;;;;;;;;;;;24.27;22.92;99675.06;4294046;33;35062;-75
2022/04/30 12:29:37;;;;;;;4.22;2.95;;;;;;;23.35;23.56;99678.75;4293182;33;34711;-76
2022/04/30 12:32:07;;;;;;;5.95;3.10;;;;;;;23.81;22.62;99671.59;4304656;33;34541;-74